Time;durP1;ratioP1;P1;durP2;ratioP2;P2;SDS_P1;SDS_P2;PMS_P1;PMS_P2;Temp;Humidity;BMP_temperature;BMP_pressure;BME280_temperature;BME280_humidity;BME280_pressure;Samples;Min_cycle;Max_cycle;Signal;HPM_P1;HPM_P2
2022/01/05 00:00:45;;;;;;;19.55;2.92;;;;;;;-142.75;100.00;77296.72;5030284;28;20029;-69
2022/01/05 00:03:10;;;;;;;8.45;1.90;;;;;;;-142.75;100.00;77310.50;5048308;28;20028;-69
2022/01/05 00:05:37;;;;;;;7.77;1.90;;;;;;;-142.75;100.00;77310.50;5048080;28;20020;-69
2022/01/05 00:10:34;;;;;;;12.17;2.00;;;;;;;-142.75;100.00;77334.13;5017506;28;20447;-70
2022/01/05 00:12:59;;;;;;;10.20;1.65;;;;;;;-142.75;100.00;77324.28;5028824;28;20021;-70
2022/01/05 00:15:24;;;;;;;12.27;2.22;;;;;;;-142.75;100.00;77322.31;5030150;28;20025;-70
2022/01/05 00:17:50;;;;;;;10.38;2.10;;;;;;;-142.75;100.00;77318.38;5032800;28;20051;-70
2022/01/05 00:20:15;;;;;;;17.58;2.38;;;;;;;-142.75;100.00;77318.38;5016024;28;20048;-69
2022/01/05 00:22:41;;;;;;;8.13;2.03;;;;;;;-142.75;100.00;77320.34;5054237;22;20132;-68
2022/01/05 00:25:06;;;;;;;13.60;1.67;;;;;;;-142.75;100.00;77336.09;5012755;28;20033;-67
2022/01/05 00:27:32;;;;;;;10.40;2.03;;;;;;;-142.75;100.00;77340.03;5015843;28;20506;-68
2022/01/05 00:29:58;;;;;;;8.75;1.90;;;;;;;-142.75;100.00;77324.28;5033132;28;20023;-68
2022/01/05 00:32:23;;;;;;;;;;;;;;;-142.75;100.00;77330.19;5033602;28;20052;-68
2022/01/05 00:34:49;;;;;;;6.03;1.50;;;;;;;-142.75;100.00;77330.19;5033308;28;19917;-67
2022/01/05 00:37:14;;;;;;;8.02;1.65;;;;;;;-142.75;100.00;77324.28;5033321;28;20033;-67
2022/01/05 00:39:39;;;;;;;11.23;2.43;;;;;;;-142.75;100.00;77322.31;5032899;28;20100;-68
2022/01/05 00:42:05;;;;;;;10.00;2.33;;;;;;;-142.75;100.00;77332.16;5040842;28;20307;-68
2022/01/05 00:44:30;;;;;;;12.85;1.65;;;;;;;-142.75;100.00;77318.38;5053077;28;20086;-68
2022/01/05 00:46:56;;;;;;;9.70;1.73;;;;;;;-142.75;100.00;77330.19;5052906;28;20032;-67
2022/01/05 00:49:21;;;;;;;8.63;1.90;;;;;;;-142.75;100.00;77338.06;5052676;28;20025;-68
2022/01/05 00:51:46;;;;;;;14.35;1.98;;;;;;;-142.75;100.00;77338.06;5052697;28;20017;-67
2022/01/05 00:54:12;;;;;;;18.08;2.45;;;;;;;-142.75;100.00;77343.97;5033696;28;20041;-67
2022/01/05 00:56:37;;;;;;;9.77;1.85;;;;;;;-142.75;100.00;77345.94;5018896;28;20473;-68
2022/01/05 00:59:02;;;;;;;14.63;2.08;;;;;;;-142.75;100.00;77342.00;5052727;28;20066;-68
2022/01/05 01:01:28;;;;;;;14.45;2.75;;;;;;;-142.75;100.00;77353.81;5052758;28;20064;-68
2022/01/05 01:03:53;;;;;;;10.73;2.33;;;;;;;-142.75;100.00;77353.81;5052756;28;20021;-68
2022/01/05 01:06:19;;;;;;;11.50;2.10;;;;;;;-142.75;100.00;77353.81;5052775;28;20025;-68
2022/01/05 01:08:44;;;;;;;7.50;1.77;;;;;;;-142.75;100.00;77349.88;5034463;28;20027;-67
2022/01/05 01:11:09;;;;;;;17.10;3.25;;;;;;;-142.75;100.00;77361.69;5052668;28;20056;-67
2022/01/05 01:13:35;;;;;;;14.80;2.00;;;;;;;-142.75;100.00;77361.69;5052539;28;20029;-67
2022/01/05 01:16:00;;;;;;;8.87;1.80;;;;;;;-142.75;100.00;77365.63;5052407;28;20279;-68
2022/01/05 01:18:26;;;;;;;11.77;1.88;;;;;;;-142.75;100.00;77361.69;5052248;28;20593;-67
2022/01/05 01:20:52;;;;;;;9.10;1.80;;;;;;;-142.75;100.00;77369.56;5053027;28;20025;-67
2022/01/05 01:23:21;;;;;;;12.95;2.05;;;;;;;-142.75;100.00;77363.66;5052411;28;20029;-68
2022/01/05 01:25:46;;;;;;;13.13;2.40;;;;;;;-142.75;100.00;77369.56;5034553;28;20033;-68
2022/01/05 01:28:12;;;;;;;14.23;1.80;;;;;;;-142.75;100.00;77365.63;5034196;28;20101;-67
2022/01/05 01:30:37;;;;;;;13.18;2.60;;;;;;;-142.75;100.00;77371.53;5052538;28;20531;-68
2022/01/05 01:33:03;;;;;;;8.95;1.98;;;;;;;-142.75;100.00;77377.44;5052077;28;20463;-68
2022/01/05 01:35:28;;;;;;;10.07;2.53;;;;;;;-142.75;100.00;77389.25;5034346;28;20028;-68
2022/01/05 01:37:55;;;;;;;14.57;2.33;;;;;;;-142.75;100.00;77385.31;5051864;28;20429;-67
2022/01/05 01:40:20;;;;;;;16.63;2.67;;;;;;;-142.75;100.00;77387.28;5034474;28;20381;-68
2022/01/05 01:42:46;;;;;;;16.13;3.17;;;;;;;-142.75;100.00;77385.31;5051940;28;20029;-67
2022/01/05 01:45:12;;;;;;;11.13;2.00;;;;;;;-142.75;100.00;77389.25;5033954;28;20025;-68
2022/01/05 01:47:37;;;;;;;10.32;2.25;;;;;;;-142.75;100.00;77393.19;5033902;28;20049;-67
2022/01/05 01:50:03;;;;;;;13.43;2.22;;;;;;;-142.75;100.00;77389.25;5051570;28;20533;-68
2022/01/05 01:52:29;;;;;;;;;;;;;;;-142.75;100.00;77389.25;5051990;28;20105;-67
2022/01/05 01:54:54;;;;;;;12.33;1.80;;;;;;;-142.75;100.00;77389.25;5051753;28;20010;-68
2022/01/05 01:57:20;;;;;;;11.57;2.28;;;;;;;-142.75;100.00;77391.22;5051714;28;20497;-68
2022/01/05 01:59:47;;;;;;;11.60;1.50;;;;;;;-142.75;100.00;77389.25;5051263;28;20541;-67
2022/01/05 02:02:12;;;;;;;;;;;;;;;-142.75;100.00;77389.25;5051915;28;20033;-68
2022/01/05 02:04:39;;;;;;;12.53;2.00;;;;;;;-142.75;100.00;77393.19;5051516;28;19919;-67
2022/01/05 02:07:04;;;;;;;13.40;2.43;;;;;;;-142.75;100.00;77393.19;5033618;28;20028;-68
2022/01/05 02:09:30;;;;;;;13.38;2.72;;;;;;;-142.75;100.00;77395.16;5051155;28;20040;-68
2022/01/05 02:11:55;;;;;;;11.10;1.73;;;;;;;-142.75;100.00;77393.19;5051423;28;20463;-67
2022/01/05 02:14:20;;;;;;;14.65;2.75;;;;;;;-142.75;100.00;77393.19;5033533;28;20051;-67
2022/01/05 02:16:47;;;;;;;13.27;2.33;;;;;;;-142.75;100.00;77397.13;5033398;28;20056;-68
2022/01/05 02:19:13;;;;;;;;;;;;;;;-142.75;100.00;77403.03;5033833;28;20401;-67
2022/01/05 02:21:39;;;;;;;11.43;1.80;;;;;;;-142.75;100.00;77401.06;5050960;28;19913;-68
2022/01/05 02:24:06;;;;;;;18.50;2.73;;;;;;;-142.75;100.00;77399.09;5051224;28;20486;-68
2022/01/05 02:26:32;;;;;;;14.77;2.80;;;;;;;-142.75;100.00;77399.09;5051173;28;20029;-67
2022/01/05 02:28:58;;;;;;;;;;;;;;;-142.75;100.00;77397.13;5051273;28;20448;-67
2022/01/05 02:31:23;;;;;;;17.20;2.67;;;;;;;-142.75;100.00;77393.19;5033041;28;19913;-67
2022/01/05 02:33:49;;;;;;;9.68;2.00;;;;;;;-142.75;100.00;77387.28;5051020;28;20032;-67
2022/01/05 02:36:18;;;;;;;7.15;2.10;;;;;;;-142.75;100.00;77385.31;5033044;28;20469;-67
2022/01/05 02:38:44;;;;;;;15.67;2.33;;;;;;;-142.75;100.00;77381.38;5050243;28;20401;-68
2022/01/05 02:41:10;;;;;;;;;;;;;;;-142.75;100.00;77377.44;5033350;28;20024;-67
2022/01/05 02:43:36;;;;;;;13.23;2.00;;;;;;;-142.75;100.00;77387.28;5050826;28;20285;-68
2022/01/05 02:46:02;;;;;;;;;;;;;;;-142.75;100.00;77381.38;5051292;28;20033;-67
2022/01/05 02:48:27;;;;;;;10.33;2.47;;;;;;;-142.75;100.00;77367.59;5050454;28;20345;-67
2022/01/05 02:50:57;;;;;;;16.33;2.58;;;;;;;-142.75;100.00;77365.63;5050757;28;20040;-67
2022/01/05 02:53:22;;;;;;;16.60;2.47;;;;;;;-142.75;100.00;77367.59;5050701;28;20025;-67
2022/01/05 02:55:48;;;;;;;16.70;2.25;;;;;;;-142.75;100.00;77365.63;5032963;28;20066;-67
2022/01/05 02:58:13;;;;;;;18.02;2.20;;;;;;;-142.75;100.00;77359.72;5050288;28;20021;-67
2022/01/05 03:00:38;;;;;;;18.67;2.97;;;;;;;-142.75;100.00;77365.63;5032858;28;20036;-67
2022/01/05 03:03:03;;;;;;;13.10;2.57;;;;;;;-142.75;100.00;77369.56;5050662;28;20037;-68
2022/01/05 03:05:29;;;;;;;15.87;2.87;;;;;;;-142.75;100.00;77373.50;5037764;28;20375;-68
2022/01/05 03:07:54;;;;;;;11.57;2.40;;;;;;;-142.75;100.00;77379.41;5033883;28;20298;-66
2022/01/05 03:10:20;;;;;;;11.30;2.23;;;;;;;-142.75;100.00;77379.41;5037106;28;20025;-67
2022/01/05 03:12:45;;;;;;;11.45;2.20;;;;;;;-142.75;100.00;77377.44;5046577;28;20727;-67
2022/01/05 03:15:11;;;;;;;19.25;2.88;;;;;;;-142.75;100.00;77377.44;5050640;28;20028;-68
2022/01/05 03:17:37;;;;;;;11.82;2.28;;;;;;;-142.75;100.00;77381.38;5050607;28;20021;-67
2022/01/05 03:20:03;;;;;;;15.43;3.30;;;;;;;-142.75;100.00;77381.38;5050133;28;20029;-67
2022/01/05 03:22:29;;;;;;;15.82;2.53;;;;;;;-142.75;100.00;77387.28;5037922;28;20025;-68
2022/01/05 03:24:54;;;;;;;10.55;2.35;;;;;;;-142.75;100.00;77381.38;5030593;28;20037;-67
2022/01/05 03:27:19;;;;;;;18.92;3.00;;;;;;;-142.75;100.00;77389.25;5030562;28;20394;-67
2022/01/05 03:29:45;;;;;;;20.30;2.78;;;;;;;-142.75;100.00;77383.34;5012600;28;20151;-67
2022/01/05 03:32:10;;;;;;;19.63;3.28;;;;;;;-142.75;100.00;77397.13;5029144;28;20071;-67
2022/01/05 03:34:37;;;;;;;18.15;2.33;;;;;;;-142.75;100.00;77397.13;5030424;28;20029;-67
2022/01/05 03:37:03;;;;;;;13.33;2.57;;;;;;;-142.75;100.00;77397.13;5030445;28;20028;-68
2022/01/05 03:39:28;;;;;;;17.58;2.63;;;;;;;-142.75;100.00;77395.16;5030225;28;20028;-67
2022/01/05 03:41:54;;;;;;;15.95;2.30;;;;;;;-142.75;100.00;77399.09;5028843;28;20025;-67
2022/01/05 03:44:19;;;;;;;14.95;2.63;;;;;;;-142.75;100.00;77393.19;5030446;28;20017;-67
2022/01/05 03:46:44;;;;;;;11.97;3.17;;;;;;;-142.75;100.00;77391.22;5012642;28;20025;-67
2022/01/05 03:49:10;;;;;;;16.63;2.88;;;;;;;-142.75;100.00;77387.28;5030122;28;20048;-66
2022/01/05 03:51:35;;;;;;;15.83;3.40;;;;;;;-142.75;100.00;77389.25;5030033;28;20021;-68
2022/01/05 03:54:00;;;;;;;17.15;3.13;;;;;;;-142.75;100.00;77387.28;5016362;28;20714;-67
2022/01/05 03:56:26;;;;;;;14.77;2.47;;;;;;;-142.75;100.00;77375.47;5046331;28;20053;-67
2022/01/05 03:58:51;;;;;;;13.23;2.58;;;;;;;-142.75;100.00;77377.44;5035632;28;20021;-67
2022/01/05 04:01:17;;;;;;;18.57;3.03;;;;;;;-142.75;100.00;77369.56;5051303;28;20119;-67
2022/01/05 04:03:42;;;;;;;11.70;2.40;;;;;;;-142.75;100.00;77365.63;5033850;28;20307;-67
2022/01/05 04:06:07;;;;;;;13.05;2.60;;;;;;;-142.75;100.00;77361.69;5016244;28;20062;-67
2022/01/05 04:08:33;;;;;;;17.42;2.65;;;;;;;-142.75;100.00;77361.69;5015890;28;20037;-67
2022/01/05 04:10:58;;;;;;;16.55;3.35;;;;;;;-142.75;100.00;77359.72;5015980;28;20091;-67
2022/01/05 04:13:23;;;;;;;11.23;2.13;;;;;;;-142.75;100.00;77357.75;5033636;28;20030;-67
2022/01/05 04:15:49;;;;;;;22.73;3.22;;;;;;;-142.75;100.00;77353.81;5033712;28;20449;-67
2022/01/05 04:18:14;;;;;;;17.85;2.38;;;;;;;-142.75;100.00;77351.84;5033393;28;20029;-67
2022/01/05 04:20:40;;;;;;;19.17;3.93;;;;;;;-142.75;100.00;77343.97;5033676;28;20052;-67
2022/01/05 04:23:05;;;;;;;12.48;2.92;;;;;;;-142.75;100.00;77357.75;5014313;28;20307;-67
2022/01/05 04:25:32;;;;;;;15.20;3.63;;;;;;;-142.75;100.00;77357.75;5033636;28;20661;-67
2022/01/05 04:27:58;;;;;;;14.63;2.47;;;;;;;-142.75;100.00;77351.84;5033103;28;20421;-67
2022/01/05 04:30:23;;;;;;;12.93;3.03;;;;;;;-142.75;100.00;77349.88;5015715;28;20048;-67
2022/01/05 04:32:48;;;;;;;19.80;3.25;;;;;;;-142.75;100.00;77343.97;5033263;28;20537;-67
2022/01/05 04:35:14;;;;;;;17.50;2.63;;;;;;;-142.75;100.00;77353.81;5015691;28;20040;-68
2022/01/05 04:37:41;;;;;;;18.23;2.80;;;;;;;-142.75;100.00;77338.06;5033263;28;20055;-67
2022/01/05 04:40:07;;;;;;;16.33;2.70;;;;;;;-142.75;100.00;77343.97;5036918;28;20082;-67
2022/01/05 04:42:32;;;;;;;11.33;2.40;;;;;;;-142.75;100.00;77334.13;5022158;28;20029;-68
2022/01/05 04:44:58;;;;;;;15.73;2.63;;;;;;;-142.75;100.00;77334.13;5033304;28;20026;-67
2022/01/05 04:47:23;;;;;;;22.07;3.13;;;;;;;-142.75;100.00;77332.16;5033105;28;20280;-68
2022/01/05 04:49:49;;;;;;;13.47;3.17;;;;;;;-142.75;100.00;77326.25;5015123;28;20300;-68
2022/01/05 04:52:14;;;;;;;11.98;2.65;;;;;;;-142.75;100.00;77334.13;5031585;28;20029;-67
2022/01/05 04:54:39;;;;;;;13.18;2.63;;;;;;;-142.75;100.00;77330.19;5033080;28;20044;-67
2022/01/05 04:57:06;;;;;;;10.13;2.35;;;;;;;-142.75;100.00;77336.09;5015321;28;20033;-67
2022/01/05 04:59:31;;;;;;;;;;;;;;;-142.75;100.00;77330.19;5031991;28;20099;-66
2022/01/05 05:01:56;;;;;;;17.57;2.40;;;;;;;-142.75;100.00;77345.94;5014544;28;19917;-66
2022/01/05 05:04:22;;;;;;;12.67;2.60;;;;;;;-142.75;100.00;77338.06;5032833;28;20048;-66
2022/01/05 05:06:47;;;;;;;15.70;2.93;;;;;;;-142.75;100.00;77342.00;5015546;28;20443;-66
2022/01/05 05:09:12;;;;;;;20.77;2.95;;;;;;;-142.75;100.00;77342.00;5032410;28;20307;-66
2022/01/05 05:11:38;;;;;;;17.63;2.78;;;;;;;-142.75;100.00;77349.88;5015114;28;20032;-65
2022/01/05 05:14:03;;;;;;;16.20;2.60;;;;;;;-142.75;100.00;77342.00;5041014;28;20033;-66
2022/01/05 05:16:28;;;;;;;15.30;3.13;;;;;;;-142.75;100.00;77351.84;5052641;28;20482;-66
2022/01/05 05:18:54;;;;;;;19.50;2.80;;;;;;;-142.75;100.00;77347.91;5035413;28;20279;-66
2022/01/05 05:21:19;;;;;;;13.77;2.30;;;;;;;-142.75;100.00;77342.00;5016378;28;20264;-65
2022/01/05 05:23:44;;;;;;;13.63;2.40;;;;;;;-142.75;100.00;77342.00;5015037;28;20385;-66
2022/01/05 05:26:09;;;;;;;14.30;2.78;;;;;;;-142.75;100.00;77342.00;5032392;28;20025;-66
2022/01/05 05:28:35;;;;;;;17.73;2.40;;;;;;;-142.75;100.00;77340.03;5032163;28;20021;-66
2022/01/05 05:31:00;;;;;;;10.68;2.30;;;;;;;-142.75;100.00;77347.91;5021263;28;20850;-66
2022/01/05 05:33:25;;;;;;;9.23;2.50;;;;;;;-142.75;100.00;77351.84;5052117;28;20036;-66
2022/01/05 05:35:51;;;;;;;13.73;2.58;;;;;;;-142.75;100.00;77342.00;5052170;28;20486;-66
2022/01/05 05:38:16;;;;;;;18.17;2.63;;;;;;;-142.75;100.00;77351.84;5051763;28;20029;-66
2022/01/05 05:40:43;;;;;;;16.35;2.50;;;;;;;-142.75;100.00;77342.00;5052026;28;20379;-66
2022/01/05 05:43:09;;;;;;;16.40;3.27;;;;;;;-142.75;100.00;77351.84;5033979;28;20067;-65
2022/01/05 05:45:34;;;;;;;18.45;3.05;;;;;;;-142.75;100.00;77351.84;5034287;28;20497;-66
2022/01/05 05:47:59;;;;;;;22.13;2.73;;;;;;;-142.75;100.00;77338.06;5051613;28;20024;-66
2022/01/05 05:50:24;;;;;;;12.57;2.60;;;;;;;-142.75;100.00;77340.03;5051856;28;20298;-66
2022/01/05 05:52:50;;;;;;;19.63;3.20;;;;;;;-142.75;100.00;77338.06;5036427;28;20037;-66
2022/01/05 05:55:15;;;;;;;14.20;2.30;;;;;;;-142.75;100.00;77328.22;5014011;28;20063;-66
2022/01/05 05:57:41;;;;;;;17.48;2.95;;;;;;;-142.75;100.00;77326.25;5014103;28;20459;-66
2022/01/05 06:00:08;;;;;;;22.20;3.42;;;;;;;-142.75;100.00;77324.28;5031532;28;20029;-66
2022/01/05 06:02:33;;;;;;;13.03;2.53;;;;;;;-142.75;100.00;77340.03;5013899;28;20032;-66
2022/01/05 06:04:58;;;;;;;13.23;2.13;;;;;;;-142.75;100.00;77340.03;5031709;28;20444;-66
2022/01/05 06:07:24;;;;;;;11.25;2.17;;;;;;;-142.75;100.00;77342.00;5031624;28;20048;-66
2022/01/05 06:09:49;;;;;;;11.93;2.45;;;;;;;-142.75;100.00;77349.88;5031232;28;20036;-66
2022/01/05 06:12:15;;;;;;;15.18;3.10;;;;;;;-142.75;100.00;77357.75;5030031;28;20029;-66
2022/01/05 06:14:40;;;;;;;21.10;2.83;;;;;;;-142.75;100.00;77351.84;5030653;28;20498;-66
2022/01/05 06:17:05;;;;;;;15.23;3.17;;;;;;;-142.75;100.00;77351.84;5031379;28;20405;-67
2022/01/05 06:19:31;;;;;;;15.50;2.58;;;;;;;-142.75;100.00;77349.88;5031180;28;20128;-66
2022/01/05 06:21:57;;;;;;;18.00;3.90;;;;;;;-142.75;100.00;77349.88;5056802;23;20045;-69
2022/01/05 06:24:22;;;;;;;17.27;2.35;;;;;;;-142.75;100.00;77340.03;5032193;28;20029;-68
2022/01/05 06:26:47;;;;;;;14.20;2.50;;;;;;;-142.75;100.00;77338.06;5049443;28;20375;-68
2022/01/05 06:29:13;;;;;;;16.40;2.70;;;;;;;-142.75;100.00;77322.31;5050903;28;20028;-68
2022/01/05 06:31:40;;;;;;;14.23;3.00;;;;;;;-142.75;100.00;77330.19;5033169;28;20271;-67
2022/01/05 06:34:05;;;;;;;14.68;2.20;;;;;;;-142.75;100.00;77330.19;5052414;28;20032;-68
2022/01/05 06:36:31;;;;;;;21.55;2.28;;;;;;;-142.75;100.00;77334.13;5055130;28;20036;-68
2022/01/05 06:38:56;;;;;;;25.07;3.10;;;;;;;-142.75;100.00;77326.25;5051014;28;20048;-68
2022/01/05 06:41:21;;;;;;;21.67;2.87;;;;;;;-142.75;100.00;77322.31;5050972;28;20798;-67
2022/01/05 06:43:46;;;;;;;13.37;2.73;;;;;;;-142.75;100.00;77328.22;5051005;28;20267;-68
2022/01/05 06:46:12;;;;;;;16.92;2.72;;;;;;;-142.75;100.00;77322.31;5050966;28;20033;-68
2022/01/05 06:48:37;;;;;;;18.38;2.70;;;;;;;-142.75;100.00;77330.19;5032649;28;20043;-68
2022/01/05 06:51:03;;;;;;;17.38;2.75;;;;;;;-142.75;100.00;77330.19;5050936;28;20394;-68
2022/01/05 06:53:28;;;;;;;19.77;3.57;;;;;;;-142.75;100.00;77334.13;5046766;28;20405;-68
2022/01/05 06:55:53;;;;;;;18.07;2.87;;;;;;;-142.75;100.00;77334.13;5052733;28;20275;-68
2022/01/05 06:58:19;;;;;;;16.15;2.83;;;;;;;-142.75;100.00;77345.94;5070484;28;20024;-68
2022/01/05 07:00:45;;;;;;;21.30;3.10;;;;;;;-142.75;100.00;77349.88;5070681;28;20036;-68
2022/01/05 07:03:10;;;;;;;18.90;2.92;;;;;;;-142.75;100.00;77359.72;5070694;28;20538;-68
2022/01/05 07:05:36;;;;;;;13.00;2.33;;;;;;;-142.75;100.00;77355.78;5070649;28;20027;-68
2022/01/05 07:08:01;;;;;;;19.13;3.13;;;;;;;-142.75;100.00;77359.72;5070474;28;20070;-68
2022/01/05 07:10:27;;;;;;;13.57;3.00;;;;;;;-142.75;100.00;77367.59;5052534;28;20047;-68
2022/01/05 07:12:52;;;;;;;23.52;3.95;;;;;;;-142.75;100.00;77377.44;5052522;28;20279;-68
2022/01/05 07:15:18;;;;;;;17.85;2.45;;;;;;;-142.75;100.00;77377.44;5070639;28;20073;-68
2022/01/05 07:17:43;;;;;;;19.42;3.53;;;;;;;-142.75;100.00;77369.56;5070820;28;20032;-68
2022/01/05 07:20:09;;;;;;;19.23;2.53;;;;;;;-142.75;100.00;77385.31;5070345;28;20063;-68
2022/01/05 07:22:35;;;;;;;18.83;2.83;;;;;;;-142.75;100.00;77375.47;5070346;28;20043;-67
2022/01/05 07:25:00;;;;;;;14.38;3.13;;;;;;;-142.75;100.00;77383.34;5070742;28;20021;-67
2022/01/05 07:27:26;;;;;;;16.10;2.92;;;;;;;-142.75;100.00;77397.13;5074503;28;20496;-68
2022/01/05 07:29:51;;;;;;;16.75;2.70;;;;;;;-142.75;100.00;77405.00;5074345;28;20107;-68
2022/01/05 07:32:17;;;;;;;18.10;2.65;;;;;;;-142.75;100.00;77395.16;5074378;28;20066;-68
2022/01/05 07:34:42;;;;;;;21.73;4.03;;;;;;;-142.75;100.00;77401.06;5074376;28;20063;-68
2022/01/05 07:37:09;;;;;;;21.27;3.08;;;;;;;-142.75;100.00;77395.16;5056483;28;20032;-68
2022/01/05 07:39:35;;;;;;;24.10;3.37;;;;;;;-142.75;100.00;77385.31;5074012;28;20144;-67
2022/01/05 07:42:00;;;;;;;20.38;3.72;;;;;;;-142.75;100.00;77387.28;5074210;28;20496;-67
2022/01/05 07:44:25;;;;;;;16.83;2.45;;;;;;;-142.75;100.00;77391.22;5074352;28;20384;-67
2022/01/05 07:46:51;;;;;;;23.47;3.00;;;;;;;-142.75;100.00;77385.31;5074478;28;20021;-67
2022/01/05 07:49:16;;;;;;;21.95;2.97;;;;;;;-142.75;100.00;77381.38;5062990;28;20035;-67
2022/01/05 07:51:41;;;;;;;16.43;2.63;;;;;;;-142.75;100.00;77385.31;5058388;28;20028;-67
2022/01/05 07:54:07;;;;;;;17.70;2.72;;;;;;;-142.75;100.00;77389.25;5071239;28;20868;-67
2022/01/05 07:56:32;;;;;;;22.30;3.38;;;;;;;-142.75;100.00;77377.44;5072912;28;20032;-66
2022/01/05 07:58:58;;;;;;;17.48;2.83;;;;;;;-142.75;100.00;77369.56;5072895;28;20036;-67
2022/01/05 08:01:24;;;;;;;25.42;4.50;;;;;;;-142.75;100.00;77369.56;5072999;28;20028;-67
2022/01/05 08:03:49;;;;;;;21.73;3.53;;;;;;;-142.75;100.00;77379.41;5072996;28;20099;-67
2022/01/05 08:06:15;;;;;;;19.70;3.13;;;;;;;-142.75;100.00;77369.56;5072881;28;20035;-67
2022/01/05 08:08:40;;;;;;;23.83;4.00;;;;;;;-142.75;100.00;77371.53;5052399;28;20020;-68
2022/01/05 08:11:06;;;;;;;23.35;3.78;;;;;;;-142.75;100.00;77357.75;5052804;28;20032;-68
2022/01/05 08:13:31;;;;;;;22.92;3.40;;;;;;;-142.75;100.00;77355.78;5052584;28;20025;-67
2022/01/05 08:15:57;;;;;;;19.20;2.97;;;;;;;-142.75;100.00;77351.84;5051998;28;20041;-67
2022/01/05 08:18:22;;;;;;;19.80;3.07;;;;;;;-142.75;100.00;77349.88;5052210;28;20045;-67
2022/01/05 08:20:48;;;;;;;20.83;2.72;;;;;;;-142.75;100.00;77351.84;5052608;28;20474;-67
2022/01/05 08:23:21;;;;;;;20.60;3.30;;;;;;;-142.75;100.00;77353.81;5052504;28;20029;-67
2022/01/05 08:25:48;;;;;;;14.33;3.33;;;;;;;-142.75;100.00;77353.81;5052451;28;20040;-68
2022/01/05 08:28:14;;;;;;;18.23;3.37;;;;;;;-142.75;100.00;77357.75;5051914;28;20631;-68
2022/01/05 08:30:40;;;;;;;15.05;2.92;;;;;;;-142.75;100.00;77351.84;5052086;28;20029;-67
2022/01/05 08:33:06;;;;;;;23.40;2.95;;;;;;;-142.75;100.00;77373.50;5051346;28;20020;-66
2022/01/05 08:35:33;;;;;;;20.03;3.50;;;;;;;-142.75;100.00;77355.78;5050897;28;20083;-66
2022/01/05 08:37:59;;;;;;;19.60;3.27;;;;;;;-142.75;100.00;77365.63;5049766;28;20035;-67
2022/01/05 08:40:25;;;;;;;;;;;;;;;-142.75;100.00;77371.53;5032455;28;20016;-67
2022/01/05 08:42:52;;;;;;;18.67;3.00;;;;;;;-142.75;100.00;77393.19;5049768;28;19913;-68
2022/01/05 08:45:18;;;;;;;16.27;2.60;;;;;;;-142.75;100.00;77389.25;5050460;28;20063;-67
2022/01/05 08:47:47;;;;;;;23.77;2.67;;;;;;;-142.75;100.00;77397.13;5071012;28;20423;-67
2022/01/05 08:50:15;;;;;;;20.90;3.40;;;;;;;-142.75;100.00;77387.28;5071800;28;20130;-67
2022/01/05 08:52:40;;;;;;;19.70;3.07;;;;;;;-142.75;100.00;77385.31;5072073;28;20432;-67
2022/01/05 08:55:08;;;;;;;15.32;2.80;;;;;;;-142.75;100.00;77389.25;5071728;28;20016;-66
2022/01/05 08:57:33;;;;;;;21.00;3.30;;;;;;;-142.75;100.00;77397.13;5071858;28;20397;-67
2022/01/05 08:59:59;;;;;;;24.58;5.03;;;;;;;-142.75;100.00;77395.16;5071591;28;20036;-67
2022/01/05 09:02:24;;;;;;;17.10;2.50;;;;;;;-142.75;100.00;77389.25;5071323;28;20119;-67
2022/01/05 09:04:51;;;;;;;19.47;3.40;;;;;;;-142.75;100.00;77397.13;5064753;28;20259;-66
2022/01/05 09:07:18;;;;;;;15.60;2.60;;;;;;;-142.75;100.00;77393.19;5068637;28;20489;-66
2022/01/05 09:09:44;;;;;;;30.20;3.63;;;;;;;-142.75;100.00;77373.50;5071348;28;20029;-66
2022/01/05 09:12:10;;;;;;;24.00;3.38;;;;;;;-142.75;100.00;77373.50;5071267;28;20111;-66
2022/01/05 09:14:35;;;;;;;16.60;3.40;;;;;;;-142.75;100.00;77383.34;5071560;28;20064;-67
2022/01/05 09:17:01;;;;;;;23.15;3.78;;;;;;;-142.75;100.00;77393.19;5071287;28;20465;-67
2022/01/05 09:19:28;;;;;;;22.15;3.55;;;;;;;-142.75;100.00;77397.13;5062147;28;20025;-68
2022/01/05 09:21:53;;;;;;;19.30;3.20;;;;;;;-142.75;100.00;77399.09;5060971;28;20032;-68
2022/01/05 09:24:19;;;;;;;16.95;2.80;;;;;;;-142.75;100.00;77397.13;5069699;28;20085;-68
2022/01/05 09:26:44;;;;;;;20.90;3.17;;;;;;;-142.75;100.00;77416.81;5069366;28;20039;-68
2022/01/05 09:29:10;;;;;;;27.25;3.92;;;;;;;-142.75;100.00;77416.81;5069095;28;20040;-68
2022/01/05 09:31:35;;;;;;;16.08;3.03;;;;;;;-142.75;100.00;77416.81;5070695;28;20026;-68
2022/01/05 09:34:01;;;;;;;21.52;3.63;;;;;;;-142.75;100.00;77406.97;5071304;28;20028;-68
2022/01/05 09:36:49;;;;;;;20.75;3.00;;;;;;;-142.75;100.00;77395.16;5049846;28;20041;-67
2022/01/05 09:42:01;;;;;;;18.53;3.17;;;;;;;-142.75;100.00;77397.13;5051417;28;20154;-68
2022/01/05 09:44:35;;;;;;;18.47;3.47;;;;;;;-142.75;100.00;77401.06;5051025;28;20067;-67
2022/01/05 09:47:20;;;;;;;26.07;3.90;;;;;;;-142.75;100.00;77389.25;5050531;28;20025;-67
2022/01/05 09:50:13;;;;;;;20.60;3.07;;;;;;;-142.75;100.00;77385.31;5018709;28;20029;-69
2022/01/05 09:52:41;;;;;;;21.07;3.00;;;;;;;-142.75;100.00;77391.22;5050158;28;20382;-68
2022/01/05 09:55:09;;;;;;;14.07;2.57;;;;;;;-142.75;100.00;77397.13;5050840;28;20036;-68
2022/01/05 09:57:35;;;;;;;14.80;2.83;;;;;;;-142.75;100.00;77393.19;5050621;28;20367;-68
2022/01/05 10:00:01;;;;;;;15.13;2.97;;;;;;;-142.75;100.00;77391.22;5032800;28;20037;-69
2022/01/05 10:02:27;;;;;;;21.70;2.85;;;;;;;-142.75;100.00;77401.06;5050454;28;20037;-67
2022/01/05 10:04:53;;;;;;;;;;;;;;;-142.75;100.00;77401.06;5033346;28;20140;-67
2022/01/05 10:07:19;;;;;;;20.63;3.93;;;;;;;-142.75;100.00;77416.81;5050722;28;19923;-68
2022/01/05 10:09:46;;;;;;;25.77;3.72;;;;;;;-142.75;100.00;77418.78;5050198;28;20433;-68
2022/01/05 10:12:13;;;;;;;21.60;3.40;;;;;;;-142.75;100.00;77414.84;5057642;28;20538;-68
2022/01/05 10:14:43;;;;;;;18.67;4.00;;;;;;;-142.75;100.00;77420.75;5069837;28;20110;-67
2022/01/05 10:17:23;;;;;;;18.63;3.10;;;;;;;-142.75;100.00;77401.06;5070357;28;20024;-68
2022/01/05 10:19:58;;;;;;;18.37;3.33;;;;;;;-142.75;100.00;77403.03;5070265;28;20111;-67
2022/01/05 10:22:33;;;;;;;23.47;3.10;;;;;;;-142.75;100.00;77397.13;5070105;28;20036;-68
2022/01/05 10:25:03;;;;;;;22.90;4.23;;;;;;;-142.75;100.00;77389.25;5047513;28;20274;-67
2022/01/05 10:27:29;;;;;;;28.37;4.20;;;;;;;-142.75;100.00;77385.31;5048978;28;20500;-68
2022/01/05 10:30:04;;;;;;;21.70;3.65;;;;;;;-142.75;100.00;77389.25;5050125;28;20051;-68
2022/01/05 10:32:32;;;;;;;21.03;3.30;;;;;;;-142.75;100.00;77383.34;5049345;28;20394;-68
2022/01/05 10:35:01;;;;;;;22.53;3.23;;;;;;;-142.75;100.00;77389.25;5048201;28;20016;-68
2022/01/05 10:37:26;;;;;;;24.57;3.77;;;;;;;-142.75;100.00;77391.22;5047903;28;20055;-68
2022/01/05 10:40:03;;;;;;;23.87;2.80;;;;;;;-142.75;100.00;77408.94;5049583;28;20064;-68
2022/01/05 10:42:32;;;;;;;25.13;3.53;;;;;;;-142.75;100.00;77408.94;5038277;28;20305;-67
2022/01/05 10:44:57;;;;;;;19.97;3.17;;;;;;;-142.75;100.00;77420.75;5069817;28;20025;-68
2022/01/05 10:47:22;;;;;;;22.45;3.30;;;;;;;-142.75;100.00;77436.50;5069390;28;20624;-70
2022/01/05 10:49:48;;;;;;;26.53;3.50;;;;;;;-142.75;100.00;77444.38;5069424;28;20031;-68
2022/01/05 10:52:29;;;;;;;24.42;3.47;;;;;;;-142.75;100.00;77452.25;5050744;28;20279;-68
2022/01/05 10:55:08;;;;;;;24.00;3.37;;;;;;;-142.75;100.00;77446.34;5053254;28;20085;-68
2022/01/05 10:57:33;;;;;;;20.13;3.37;;;;;;;-142.75;100.00;77444.38;5059515;28;20051;-68
2022/01/05 10:59:59;;;;;;;23.90;4.07;;;;;;;-142.75;100.00;77444.38;5054098;28;20478;-68
2022/01/05 11:02:24;;;;;;;24.55;3.38;;;;;;;-142.75;100.00;77436.50;5060567;28;20021;-68
2022/01/05 11:04:51;;;;;;;22.83;3.83;;;;;;;-142.75;100.00;77440.44;5069626;28;20027;-68